createdAt,value
2022-12-02T00:01:50.084Z,102810.41
2022-12-02T00:04:27.731Z,102814.84
2022-12-02T00:06:56.355Z,102805.94
2022-12-02T00:09:32.786Z,102810.41
2022-12-02T00:12:01.232Z,102806.84
2022-12-02T00:14:30.401Z,102812.19
2022-12-02T00:16:57.284Z,102800.63
2022-12-02T00:19:24.172Z,102797.06
2022-12-02T00:21:51.840Z,102789.06
2022-12-02T00:24:19.675Z,102792.63
2022-12-02T00:26:46.771Z,102781.06
2022-12-02T00:29:13.276Z,102785.53
2022-12-02T00:31:40.112Z,102785.53
2022-12-02T00:34:06.783Z,102774.84
2022-12-02T00:36:33.648Z,102769.50
2022-12-02T00:39:00.081Z,102771.28
2022-12-02T00:41:26.578Z,102765.06
2022-12-02T00:44:11.605Z,102769.53
2022-12-02T00:46:38.023Z,102777.53
2022-12-02T00:49:07.592Z,102774.84
2022-12-02T00:51:35.643Z,102773.09
2022-12-02T00:54:02.380Z,102770.38
2022-12-02T00:56:28.959Z,102773.06
2022-12-02T00:58:55.453Z,102765.94
2022-12-02T01:01:22.682Z,102772.16
2022-12-02T01:03:49.317Z,102761.50
2022-12-02T01:06:15.986Z,102759.69
2022-12-02T01:08:43.192Z,102768.59
2022-12-02T01:11:10.187Z,102775.72
2022-12-02T01:13:37.425Z,102766.84
2022-12-02T01:16:04.413Z,102772.19
2022-12-02T01:18:30.985Z,102769.50
2022-12-02T01:20:57.456Z,102775.72
2022-12-02T01:23:23.960Z,102775.72
2022-12-02T01:25:51.416Z,102775.72
2022-12-02T01:28:18.571Z,102778.41
2022-12-02T01:30:45.279Z,102783.72
2022-12-02T01:33:11.636Z,102780.19
2022-12-02T01:35:37.986Z,102773.06
2022-12-02T01:38:04.319Z,102768.59
2022-12-02T01:40:32.256Z,102762.38
2022-12-02T01:42:58.838Z,102758.81
2022-12-02T01:45:25.449Z,102769.50
2022-12-02T01:47:52.595Z,102773.94
2022-12-02T01:50:19.463Z,102760.59
2022-12-02T01:52:46.421Z,102766.81
2022-12-02T01:55:18.239Z,102759.69
2022-12-02T01:57:44.629Z,102764.16
2022-12-02T02:00:11.639Z,102763.28
2022-12-02T02:02:39.864Z,102765.06
2022-12-02T02:05:13.687Z,102762.41
2022-12-02T02:07:42.472Z,102760.59
2022-12-02T02:10:10.036Z,102764.16
2022-12-02T02:12:36.864Z,102768.63
2022-12-02T02:15:06.178Z,102771.28
2022-12-02T02:17:33.007Z,102770.41
2022-12-02T02:19:59.980Z,102773.06
2022-12-02T02:22:58.708Z,102768.66
2022-12-02T02:25:25.111Z,102769.53
2022-12-02T02:27:54.963Z,102761.50
2022-12-02T02:30:21.542Z,102757.06
2022-12-02T02:32:49.555Z,102757.06
2022-12-02T02:35:17.375Z,102747.28
2022-12-02T02:37:44.303Z,102746.38
2022-12-02T02:40:16.035Z,102739.28
2022-12-02T02:42:44.808Z,102734.81
2022-12-02T02:45:11.785Z,102730.38
2022-12-02T02:47:38.829Z,102729.47
2022-12-02T02:50:07.086Z,102733.03
2022-12-02T02:52:33.748Z,102736.63
2022-12-02T02:55:00.233Z,102739.25
2022-12-02T02:57:26.632Z,102731.28
2022-12-02T02:59:55.156Z,102739.28
2022-12-02T03:02:22.812Z,102742.84
2022-12-02T03:04:49.916Z,102740.19
2022-12-02T03:07:16.952Z,102728.63
2022-12-02T03:09:43.739Z,102731.31
2022-12-02T03:12:10.363Z,102735.75
2022-12-02T03:14:36.802Z,102723.31
2022-12-02T03:17:04.076Z,102727.75
2022-12-02T03:19:32.884Z,102725.09
2022-12-02T03:22:01.341Z,102724.19
2022-12-02T03:24:28.447Z,102725.09
2022-12-02T03:26:54.830Z,102729.56
2022-12-02T03:29:21.574Z,102725.09
2022-12-02T03:31:48.166Z,102731.34
2022-12-02T03:34:15.152Z,102718.00
2022-12-02T03:36:42.024Z,102725.13
2022-12-02T03:39:10.080Z,102722.44
2022-12-02T03:41:37.401Z,102718.88
2022-12-02T03:44:03.919Z,102721.56
2022-12-02T03:46:30.672Z,102714.44
2022-12-02T03:48:58.771Z,102715.34
2022-12-02T03:51:26.875Z,102713.56
2022-12-02T03:53:53.896Z,102715.34
2022-12-02T03:56:20.400Z,102709.13
2022-12-02T03:58:49.733Z,102711.81
2022-12-02T04:01:17.152Z,102701.13
2022-12-02T04:03:43.792Z,102700.25
2022-12-02T04:06:11.513Z,102699.38
2022-12-02T04:08:38.624Z,102707.38
2022-12-02T04:11:05.403Z,102694.00
2022-12-02T04:13:32.146Z,102695.81
2022-12-02T04:15:58.656Z,102699.38
2022-12-02T04:18:25.104Z,102697.59
2022-12-02T04:20:51.527Z,102701.16
2022-12-02T04:23:17.943Z,102696.69
2022-12-02T04:25:44.327Z,102695.81
2022-12-02T04:28:10.715Z,102698.47
2022-12-02T04:30:37.235Z,102695.84
2022-12-02T04:33:03.751Z,102702.97
2022-12-02T04:35:30.330Z,102696.72
2022-12-02T04:37:56.759Z,102694.06
2022-12-02T04:40:23.239Z,102693.16
2022-12-02T04:42:49.735Z,102694.94
2022-12-02T04:45:16.221Z,102690.50
2022-12-02T04:47:42.584Z,102682.50
2022-12-02T04:50:09.825Z,102679.84
2022-12-02T04:52:36.362Z,102688.72
2022-12-02T04:55:02.874Z,102684.28
2022-12-02T04:57:31.633Z,102686.06
2022-12-02T04:59:58.832Z,102686.97
2022-12-02T05:02:25.401Z,102689.63
2022-12-02T05:04:51.991Z,102686.06
2022-12-02T05:07:18.664Z,102678.06
2022-12-02T05:09:45.024Z,102686.06
2022-12-02T05:12:11.359Z,102681.63
2022-12-02T05:14:37.832Z,102680.75
2022-12-02T05:17:04.269Z,102674.50
2022-12-02T05:19:30.739Z,102678.94
2022-12-02T05:21:57.164Z,102691.41
2022-12-02T05:24:23.535Z,102677.19
2022-12-02T05:26:50.111Z,102679.84
2022-12-02T05:29:16.559Z,102678.97
2022-12-02T05:31:43.031Z,102686.09
2022-12-02T05:34:09.454Z,102686.97
2022-12-02T05:36:35.827Z,102686.06
2022-12-02T05:39:02.242Z,102683.44
2022-12-02T05:41:28.692Z,102678.97
2022-12-02T05:43:55.960Z,102680.75
2022-12-02T05:46:22.446Z,102677.19
2022-12-02T05:48:50.776Z,102675.41
2022-12-02T05:51:20.592Z,102682.53
2022-12-02T05:53:48.768Z,102679.88
2022-12-02T05:56:21.048Z,102690.50
2022-12-02T05:58:47.479Z,102688.75
2022-12-02T06:01:21.009Z,102694.97
2022-12-02T06:03:47.827Z,102694.09
2022-12-02T06:06:16.069Z,102692.28
2022-12-02T06:08:42.808Z,102692.28
2022-12-02T06:11:30.814Z,102683.41
2022-12-02T06:13:59.749Z,102686.06
2022-12-02T06:16:29.501Z,102687.84
2022-12-02T06:18:56.316Z,102683.41
2022-12-02T06:21:23.247Z,102686.09
2022-12-02T06:23:52.253Z,102689.59
2022-12-02T06:26:21.431Z,102684.31
2022-12-02T06:28:58.786Z,102686.06
2022-12-02T06:31:37.929Z,102686.06
2022-12-02T06:34:30.295Z,102689.63
2022-12-02T06:36:59.001Z,102686.94
2022-12-02T06:39:25.689Z,102696.72
2022-12-02T06:41:52.164Z,102702.06
2022-12-02T06:44:42.677Z,102703.84
2022-12-02T06:47:33.885Z,102706.50
2022-12-02T06:50:06.294Z,102703.84
2022-12-02T06:52:42.646Z,102698.50
2022-12-02T06:55:31.658Z,102704.72
2022-12-02T06:58:17.586Z,102710.94
2022-12-02T07:00:44.117Z,102702.94
2022-12-02T07:03:30.906Z,102707.38
2022-12-02T07:06:23.190Z,102708.28
2022-12-02T07:08:49.804Z,102717.16
2022-12-02T07:11:48.911Z,102720.72
2022-12-02T07:14:37.308Z,102712.72
2022-12-02T07:17:13.851Z,102713.63
2022-12-02T07:19:45.870Z,102710.94
2022-12-02T07:22:18.740Z,102722.47
2022-12-02T07:24:57.184Z,102707.38
2022-12-02T07:27:31.603Z,102706.47
2022-12-02T07:29:58.844Z,102718.91
2022-12-02T07:32:25.338Z,102719.81
2022-12-02T07:34:51.979Z,102716.25
2022-12-02T07:37:19.396Z,102709.16
2022-12-02T07:39:45.852Z,102717.13
2022-12-02T07:42:14.292Z,102718.00
2022-12-02T07:44:41.114Z,102716.19
2022-12-02T07:47:07.859Z,102714.41
2022-12-02T07:49:34.231Z,102717.94
2022-12-02T07:52:00.652Z,102715.25
2022-12-02T07:54:27.100Z,102708.13
2022-12-02T07:56:53.483Z,102710.78
2022-12-02T07:59:19.903Z,102712.53
2022-12-02T08:01:46.402Z,102719.63
2022-12-02T08:04:12.900Z,102713.41
2022-12-02T08:06:40.326Z,102716.06
2022-12-02T08:09:08.636Z,102716.94
2022-12-02T08:11:35.145Z,102716.94
2022-12-02T08:14:01.579Z,102724.00
2022-12-02T08:16:28.150Z,102718.69
2022-12-02T08:18:54.571Z,102720.44
2022-12-02T08:21:20.966Z,102719.53
2022-12-02T08:23:47.332Z,102718.66
2022-12-02T08:26:13.768Z,102722.19
2022-12-02T08:28:40.217Z,102715.09
2022-12-02T08:31:06.799Z,102712.41
2022-12-02T08:33:33.235Z,102710.66
2022-12-02T08:35:59.594Z,102717.78
2022-12-02T08:38:26.043Z,102723.09
2022-12-02T08:40:52.556Z,102717.78
2022-12-02T08:43:18.963Z,102726.66
2022-12-02T08:45:45.475Z,102715.13
2022-12-02T08:48:12.197Z,102721.31
2022-12-02T08:50:38.669Z,102716.91
2022-12-02T08:53:05.095Z,102721.38
2022-12-02T08:55:31.601Z,102714.25
2022-12-02T08:57:57.988Z,102727.56
2022-12-02T09:00:24.765Z,102719.56
2022-12-02T09:02:51.345Z,102715.16
2022-12-02T09:05:18.120Z,102720.47
2022-12-02T09:07:44.609Z,102714.28
2022-12-02T09:10:12.895Z,102718.75
2022-12-02T09:12:39.427Z,102716.97
2022-12-02T09:15:07.595Z,102728.56
2022-12-02T09:17:34.057Z,102717.09
2022-12-02T09:20:00.462Z,102723.31
2022-12-02T09:22:26.909Z,102720.66
2022-12-02T09:24:53.516Z,102711.81
2022-12-02T09:27:20.171Z,102716.25
2022-12-02T09:29:46.607Z,102723.38
2022-12-02T09:32:13.009Z,102716.31
2022-12-02T09:34:39.604Z,102719.84
2022-12-02T09:37:06.009Z,102710.97
2022-12-02T09:39:37.178Z,102708.28
2022-12-02T09:42:06.863Z,102710.06
2022-12-02T09:44:33.376Z,102711.81
2022-12-02T09:47:00.048Z,102703.81
2022-12-02T09:49:26.620Z,102704.72
2022-12-02T09:51:59.666Z,102707.38
2022-12-02T09:54:26.188Z,102703.81
2022-12-02T09:56:52.691Z,102697.56
2022-12-02T09:59:19.254Z,102696.66
2022-12-02T10:01:48.308Z,102702.00
2022-12-02T10:04:18.706Z,102701.13
2022-12-02T10:06:45.657Z,102689.53
2022-12-02T10:09:17.123Z,102682.38
2022-12-02T10:11:44.436Z,102690.34
2022-12-02T10:14:13.536Z,102680.50
2022-12-02T10:16:40.687Z,102687.56
2022-12-02T10:19:08.149Z,102689.28
2022-12-02T10:21:34.709Z,102686.56
2022-12-02T10:24:04.324Z,102685.66
2022-12-02T10:26:46.584Z,102675.72
2022-12-02T10:29:19.357Z,102691.81
2022-12-02T10:31:55.001Z,102683.81
2022-12-02T10:34:23.006Z,102676.69
2022-12-02T10:36:50.095Z,102686.53
2022-12-02T10:39:25.579Z,102676.78
2022-12-02T10:42:04.335Z,102681.22
2022-12-02T10:45:15.390Z,102676.81
2022-12-02T10:47:42.093Z,102683.97
2022-12-02T10:50:23.068Z,102678.66
2022-12-02T10:52:57.457Z,102674.22
2022-12-02T10:55:24.551Z,102668.00
2022-12-02T10:57:51.228Z,102673.34
2022-12-02T11:00:21.328Z,102667.16
2022-12-02T11:02:52.473Z,102663.59
2022-12-02T11:05:27.825Z,102665.34
2022-12-02T11:07:59.100Z,102661.75
2022-12-02T11:10:33.057Z,102666.16
2022-12-02T11:13:06.122Z,102655.47
2022-12-02T11:15:32.556Z,102652.78
2022-12-02T11:17:59.101Z,102641.22
2022-12-02T11:20:33.409Z,102653.66
2022-12-02T11:22:59.702Z,102658.06
2022-12-02T11:25:44.629Z,102650.06
2022-12-02T11:28:29.351Z,102657.25
2022-12-02T11:31:11.267Z,102658.13
2022-12-02T11:33:43.565Z,102664.38
2022-12-02T11:36:10.278Z,102662.69
2022-12-02T11:38:45.577Z,102657.34
2022-12-02T11:41:11.959Z,102660.84
2022-12-02T11:43:47.304Z,102649.97
2022-12-02T11:46:42.424Z,102653.19
2022-12-02T11:49:29.987Z,102651.50
2022-12-02T11:52:08.080Z,102644.53
2022-12-02T11:54:40.579Z,102656.06
2022-12-02T11:57:07.184Z,102638.13
2022-12-02T11:59:36.452Z,102633.63
2022-12-02T12:02:18.189Z,102640.75
2022-12-02T12:04:45.796Z,102640.63
2022-12-02T12:07:12.955Z,102633.41
2022-12-02T12:09:39.908Z,102631.44
2022-12-02T12:12:18.155Z,102633.91
2022-12-02T12:15:03.518Z,102636.50
2022-12-02T12:17:34.699Z,102638.06
2022-12-02T12:20:01.111Z,102631.78
2022-12-02T12:22:30.675Z,102635.66
2022-12-02T12:25:34.779Z,102631.09
2022-12-02T12:28:01.134Z,102629.88
2022-12-02T12:30:27.603Z,102637.47
2022-12-02T12:32:54.039Z,102626.09
2022-12-02T12:35:20.534Z,102628.69
2022-12-02T12:37:46.988Z,102617.69
2022-12-02T12:40:13.564Z,102627.19
2022-12-02T12:42:39.990Z,102621.38
2022-12-02T12:45:06.740Z,102614.75
2022-12-02T12:47:33.150Z,102616.81
2022-12-02T12:49:59.605Z,102610.88
2022-12-02T12:52:26.127Z,102618.78
2022-12-02T12:54:52.863Z,102621.47
2022-12-02T12:57:20.627Z,102625.91
2022-12-02T12:59:47.088Z,102633.78
2022-12-02T13:02:13.711Z,102624.34
2022-12-02T13:04:40.262Z,102623.53
2022-12-02T13:07:06.779Z,102619.16
2022-12-02T13:09:33.212Z,102621.84
2022-12-02T13:11:59.616Z,102611.16
2022-12-02T13:14:25.971Z,102617.38
2022-12-02T13:16:52.433Z,102614.69
2022-12-02T13:19:18.898Z,102614.66
2022-12-02T13:21:45.340Z,102619.97
2022-12-02T13:24:13.980Z,102619.13
2022-12-02T13:26:40.452Z,102618.28
2022-12-02T13:29:07.213Z,102615.63
2022-12-02T13:31:33.689Z,102619.19
2022-12-02T13:34:00.150Z,102620.94
2022-12-02T13:36:26.745Z,102615.59
2022-12-02T13:38:53.147Z,102608.50
2022-12-02T13:41:19.583Z,102624.53
2022-12-02T13:43:45.997Z,102612.97
2022-12-02T13:46:12.395Z,102617.44
2022-12-02T13:48:38.817Z,102621.91
2022-12-02T13:51:05.296Z,102624.59
2022-12-02T13:53:31.656Z,102627.25
2022-12-02T13:55:58.074Z,102629.03
2022-12-02T13:58:25.303Z,102621.06
2022-12-02T14:00:51.701Z,102618.41
2022-12-02T14:03:18.183Z,102628.19
2022-12-02T14:05:44.662Z,102630.88
2022-12-02T14:08:11.097Z,102626.44
2022-12-02T14:10:37.547Z,102623.75
2022-12-02T14:13:03.923Z,102617.53
2022-12-02T14:15:30.358Z,102618.44
2022-12-02T14:17:56.770Z,102622.00
2022-12-02T14:20:23.111Z,102624.69
2022-12-02T14:22:49.526Z,102625.56
2022-12-02T14:25:16.055Z,102628.25
2022-12-02T14:27:42.431Z,102620.28
2022-12-02T14:30:09.269Z,102632.72
2022-12-02T14:32:37.718Z,102634.47
2022-12-02T14:35:05.425Z,102635.38
2022-12-02T14:37:31.882Z,102623.84
2022-12-02T14:39:58.385Z,102634.50
2022-12-02T14:42:25.009Z,102647.84
2022-12-02T14:44:51.984Z,102633.63
2022-12-02T14:47:18.650Z,102633.63
2022-12-02T14:49:46.058Z,102630.97
2022-12-02T14:52:12.643Z,102628.28
2022-12-02T14:54:39.124Z,102623.88
2022-12-02T14:57:05.557Z,102635.44
2022-12-02T14:59:31.943Z,102638.09
2022-12-02T15:01:58.464Z,102634.53
2022-12-02T15:04:28.455Z,102643.41
2022-12-02T15:06:54.880Z,102638.97
2022-12-02T15:09:21.293Z,102639.84
2022-12-02T15:11:47.717Z,102643.44
2022-12-02T15:14:14.106Z,102640.75
2022-12-02T15:16:40.630Z,102632.78
2022-12-02T15:19:07.134Z,102638.97
2022-12-02T15:21:33.563Z,102645.19
2022-12-02T15:23:59.996Z,102641.66
2022-12-02T15:26:26.420Z,102641.66
2022-12-02T15:28:52.786Z,102641.66
2022-12-02T15:31:19.294Z,102640.78
2022-12-02T15:33:46.385Z,102644.31
2022-12-02T15:36:13.401Z,102639.88
2022-12-02T15:38:40.072Z,102651.41
2022-12-02T15:41:07.302Z,102659.41
2022-12-02T15:43:33.956Z,102656.75
2022-12-02T15:46:00.391Z,102659.41
2022-12-02T15:48:26.913Z,102662.06
2022-12-02T15:50:55.299Z,102659.41
2022-12-02T15:53:22.347Z,102649.66
2022-12-02T15:55:48.780Z,102654.09
2022-12-02T15:58:15.191Z,102657.66
2022-12-02T16:00:41.649Z,102664.75
2022-12-02T16:03:08.067Z,102674.53
2022-12-02T16:05:34.484Z,102670.09
2022-12-02T16:08:01.010Z,102666.53
2022-12-02T16:10:27.466Z,102667.41
2022-12-02T16:12:53.920Z,102675.44
2022-12-02T16:15:20.496Z,102672.75
2022-12-02T16:17:46.901Z,102674.53
2022-12-02T16:20:13.794Z,102680.75
2022-12-02T16:22:40.242Z,102681.63
2022-12-02T16:25:07.129Z,102676.31
2022-12-02T16:27:33.546Z,102686.09
2022-12-02T16:29:59.996Z,102680.75
2022-12-02T16:32:26.506Z,102682.53
2022-12-02T16:34:53.289Z,102685.22
2022-12-02T16:37:21.702Z,102692.28
2022-12-02T16:39:48.340Z,102695.88
2022-12-02T16:42:14.716Z,102691.41
2022-12-02T16:44:41.218Z,102689.63
2022-12-02T16:47:07.652Z,102698.50
2022-12-02T16:49:34.192Z,102698.50
2022-12-02T16:52:00.944Z,102701.16
2022-12-02T16:54:27.387Z,102710.06
2022-12-02T16:56:56.134Z,102711.84
2022-12-02T16:59:24.014Z,102714.50
2022-12-02T17:01:50.785Z,102716.28
2022-12-02T17:04:17.302Z,102716.25
2022-12-02T17:06:43.740Z,102716.25
2022-12-02T17:09:10.199Z,102725.16
2022-12-02T17:11:36.822Z,102726.94
2022-12-02T17:14:03.737Z,102725.16
2022-12-02T17:16:30.244Z,102730.47
2022-12-02T17:18:56.846Z,102734.91
2022-12-02T17:21:23.325Z,102736.66
2022-12-02T17:23:49.752Z,102734.91
2022-12-02T17:26:16.252Z,102733.09
2022-12-02T17:28:42.784Z,102738.44
2022-12-02T17:31:10.631Z,102740.19
2022-12-02T17:33:37.275Z,102726.88
2022-12-02T17:36:04.196Z,102740.19
2022-12-02T17:38:30.856Z,102741.09
2022-12-02T17:41:12.170Z,102731.31
2022-12-02T17:43:39.476Z,102730.44
2022-12-02T17:46:06.378Z,102733.09
2022-12-02T17:48:32.879Z,102737.53
2022-12-02T17:50:59.230Z,102731.28
2022-12-02T17:53:25.765Z,102737.53
2022-12-02T17:55:52.125Z,102739.28
2022-12-02T17:58:18.522Z,102733.94
2022-12-02T18:00:44.891Z,102747.25
2022-12-02T18:03:11.270Z,102740.19
2022-12-02T18:05:38.059Z,102739.28
2022-12-02T18:08:04.671Z,102734.84
2022-12-02T18:10:31.156Z,102731.31
2022-12-02T18:12:57.576Z,102731.31
2022-12-02T18:15:23.981Z,102732.16
2022-12-02T18:17:50.435Z,102737.53
2022-12-02T18:20:16.832Z,102734.88
2022-12-02T18:22:43.560Z,102737.50
2022-12-02T18:25:10.175Z,102731.34
2022-12-02T18:27:36.533Z,102739.31
2022-12-02T18:30:03.795Z,102725.97
2022-12-02T18:32:30.153Z,102726.00
2022-12-02T18:34:56.588Z,102732.22
2022-12-02T18:37:23.021Z,102733.09
2022-12-02T18:39:49.419Z,102731.31
2022-12-02T18:42:15.790Z,102737.50
2022-12-02T18:44:42.369Z,102733.09
2022-12-02T18:47:08.788Z,102736.63
2022-12-02T18:49:40.822Z,102730.41
2022-12-02T18:52:09.463Z,102730.44
2022-12-02T18:54:35.920Z,102731.31
2022-12-02T18:57:02.329Z,102731.31
2022-12-02T18:59:28.689Z,102732.19
2022-12-02T19:01:55.170Z,102728.66
2022-12-02T19:04:21.876Z,102723.31
2022-12-02T19:06:48.624Z,102724.22
2022-12-02T19:09:14.979Z,102718.88
2022-12-02T19:11:41.371Z,102728.66
2022-12-02T19:14:07.711Z,102721.53
2022-12-02T19:16:34.212Z,102719.75
2022-12-02T19:19:00.720Z,102711.78
2022-12-02T19:21:27.230Z,102719.78
2022-12-02T19:23:53.692Z,102712.69
2022-12-02T19:26:21.834Z,102710.91
2022-12-02T19:28:48.230Z,102705.56
2022-12-02T19:31:14.688Z,102703.81
2022-12-02T19:33:41.182Z,102707.34
2022-12-02T19:36:07.802Z,102711.78
2022-12-02T19:38:34.230Z,102712.69
2022-12-02T19:41:00.607Z,102710.88
2022-12-02T19:43:29.942Z,102710.03
2022-12-02T19:45:58.999Z,102703.78
2022-12-02T19:48:25.476Z,102708.25
2022-12-02T19:50:51.922Z,102715.34
2022-12-02T19:53:18.335Z,102708.22
2022-12-02T19:55:44.857Z,102708.22
2022-12-02T19:58:11.235Z,102703.81
2022-12-02T20:00:37.722Z,102706.47
2022-12-02T20:03:04.659Z,102705.56
2022-12-02T20:05:31.056Z,102711.78
2022-12-02T20:07:57.510Z,102710.88
2022-12-02T20:10:23.928Z,102716.22
2022-12-02T20:12:50.311Z,102713.56
2022-12-02T20:15:17.130Z,102712.69
2022-12-02T20:17:43.604Z,102705.56
2022-12-02T20:20:13.039Z,102712.69
2022-12-02T20:22:40.152Z,102718.00
2022-12-02T20:25:07.701Z,102717.09
2022-12-02T20:27:34.141Z,102719.75
2022-12-02T20:30:00.590Z,102714.44
2022-12-02T20:32:27.075Z,102717.09
2022-12-02T20:34:53.640Z,102719.75
2022-12-02T20:37:20.279Z,102722.44
2022-12-02T20:39:46.733Z,102718.88
2022-12-02T20:42:13.125Z,102720.69
2022-12-02T20:44:39.542Z,102718.00
2022-12-02T20:47:06.094Z,102710.91
2022-12-02T20:49:32.652Z,102703.78
2022-12-02T20:51:59.065Z,102711.78
2022-12-02T20:54:26.064Z,102704.69
2022-12-02T20:56:52.499Z,102710.88
2022-12-02T20:59:18.867Z,102708.25
2022-12-02T21:01:45.354Z,102709.09
2022-12-02T21:04:11.791Z,102709.09
2022-12-02T21:06:38.175Z,102706.44
2022-12-02T21:09:05.501Z,102718.00
2022-12-02T21:11:31.927Z,102718.00
2022-12-02T21:13:58.292Z,102725.09
2022-12-02T21:16:24.755Z,102718.91
2022-12-02T21:18:51.148Z,102718.00
2022-12-02T21:21:17.526Z,102719.78
2022-12-02T21:23:43.903Z,102723.31
2022-12-02T21:26:10.402Z,102719.75
2022-12-02T21:28:36.872Z,102719.75
2022-12-02T21:31:03.407Z,102718.00
2022-12-02T21:33:29.768Z,102719.78
2022-12-02T21:35:56.121Z,102711.78
2022-12-02T21:38:22.554Z,102711.78
2022-12-02T21:40:48.969Z,102702.00
2022-12-02T21:43:16.527Z,102709.09
2022-12-02T21:45:43.745Z,102707.34
2022-12-02T21:48:10.240Z,102703.78
2022-12-02T21:50:36.661Z,102705.53
2022-12-02T21:53:03.145Z,102702.88
2022-12-02T21:55:29.647Z,102705.56
2022-12-02T21:57:55.998Z,102702.00
2022-12-02T22:00:22.863Z,102694.88
2022-12-02T22:02:49.276Z,102702.00
2022-12-02T22:05:16.557Z,102700.19
2022-12-02T22:07:43.623Z,102710.84
2022-12-02T22:10:16.052Z,102702.88
2022-12-02T22:12:43.094Z,102701.97
2022-12-02T22:15:24.881Z,102704.63
2022-12-02T22:17:51.529Z,102703.78
2022-12-02T22:20:18.370Z,102703.78
2022-12-02T22:22:44.959Z,102709.09
2022-12-02T22:25:11.640Z,102713.53
2022-12-02T22:27:38.021Z,102706.41
2022-12-02T22:30:06.474Z,102697.56
2022-12-02T22:32:32.818Z,102696.66
2022-12-02T22:34:59.217Z,102694.91
2022-12-02T22:37:25.549Z,102689.56
2022-12-02T22:39:51.973Z,102687.81
2022-12-02T22:42:18.331Z,102690.47
2022-12-02T22:44:44.872Z,102699.38
2022-12-02T22:47:11.286Z,102693.13
2022-12-02T22:49:37.624Z,102691.38
2022-12-02T22:52:04.052Z,102693.16
2022-12-02T22:54:31.602Z,102690.50
2022-12-02T22:56:57.995Z,102686.94
2022-12-02T22:59:24.381Z,102682.47
2022-12-02T23:01:50.923Z,102685.13
2022-12-02T23:04:17.480Z,102687.81
2022-12-02T23:06:43.858Z,102689.56
2022-12-02T23:09:10.397Z,102691.38
2022-12-02T23:11:36.795Z,102692.25
2022-12-02T23:14:03.398Z,102685.16
2022-12-02T23:16:29.960Z,102673.59
2022-12-02T23:18:56.562Z,102680.69
2022-12-02T23:21:22.949Z,102674.50
2022-12-02T23:23:49.434Z,102677.16
2022-12-02T23:26:15.921Z,102673.63
2022-12-02T23:28:42.292Z,102665.63
2022-12-02T23:31:08.673Z,102657.63
2022-12-02T23:33:35.199Z,102660.28
2022-12-02T23:36:01.624Z,102654.97
2022-12-02T23:38:28.013Z,102657.63
2022-12-02T23:40:54.440Z,102646.97
2022-12-02T23:43:20.813Z,102654.06
2022-12-02T23:45:47.217Z,102654.06
2022-12-02T23:48:13.664Z,102646.06
2022-12-02T23:50:40.084Z,102646.97
2022-12-02T23:53:06.454Z,102642.53
2022-12-02T23:55:32.818Z,102636.31
2022-12-02T23:57:59.237Z,102642.53
